Terminal Aerodrome Forecast
Issued by NWS

Home | Current Version | Previous Version | Text Only | Print | Product List | Glossary On
Versions: 1 2 3 4 5 6 7 8 9 10 11 12 13 14 15 16 17 18 19 20 21 22 23 24 25 26 27 28 29 30
000
FTUS42 KRAH 282334
TAFRWI
TAF
KRWI 282334Z 2900/2924 VRB03KT P6SM BKN015
     FM290900 01006KT 4SM -RA BR SCT007 OVC008
     FM291100 05008KT 1SM RA BR SCT002 OVC003=

USA.gov is the U.S. government's official web portal to all federal, state and local government web resources and services.